createdAt,value
2023-08-29T00:00:19.801Z,99.99
2023-08-29T00:01:19.824Z,99.99
2023-08-29T00:02:19.791Z,99.99
2023-08-29T00:03:19.802Z,99.99
2023-08-29T00:04:19.772Z,99.99
2023-08-29T00:05:19.769Z,99.99
2023-08-29T00:06:19.738Z,99.99
2023-08-29T00:07:19.712Z,99.99
2023-08-29T00:08:19.739Z,99.99
2023-08-29T00:09:19.689Z,99.99
2023-08-29T00:10:19.701Z,99.99
2023-08-29T00:11:19.669Z,99.99
2023-08-29T00:12:19.691Z,99.99
2023-08-29T00:13:19.656Z,99.99
2023-08-29T00:14:19.681Z,99.99
2023-08-29T00:15:19.636Z,99.99
2023-08-29T00:16:19.650Z,99.99
2023-08-29T00:17:19.624Z,99.99
2023-08-29T00:18:19.609Z,99.99
2023-08-29T00:19:19.699Z,99.99
2023-08-29T00:20:19.607Z,99.99
2023-08-29T00:21:19.560Z,99.99
2023-08-29T00:22:19.681Z,99.99
2023-08-29T00:23:19.580Z,99.99
2023-08-29T00:24:19.941Z,99.99
2023-08-29T00:25:19.515Z,99.99
2023-08-29T00:26:19.571Z,99.99
2023-08-29T00:27:19.508Z,99.99
2023-08-29T00:28:19.492Z,99.99
2023-08-29T00:29:19.504Z,99.99
2023-08-29T00:30:19.489Z,99.99
2023-08-29T00:31:19.478Z,99.99
2023-08-29T00:32:19.467Z,99.99
2023-08-29T00:33:19.470Z,99.99
2023-08-29T00:34:19.461Z,99.99
2023-08-29T00:35:19.424Z,99.99
2023-08-29T00:36:19.417Z,99.99
2023-08-29T00:37:19.462Z,99.99
2023-08-29T00:38:19.470Z,99.99
2023-08-29T00:39:19.705Z,99.99
2023-08-29T00:40:19.386Z,99.99
2023-08-29T00:41:19.376Z,99.99
2023-08-29T00:42:19.378Z,99.99
2023-08-29T00:43:19.371Z,99.99
2023-08-29T00:44:19.404Z,99.99
2023-08-29T00:45:19.351Z,99.99
2023-08-29T00:46:19.368Z,99.99
2023-08-29T00:47:19.300Z,99.99
2023-08-29T00:48:19.288Z,99.99
2023-08-29T00:49:19.292Z,99.99
2023-08-29T00:50:19.269Z,99.99
2023-08-29T00:51:19.261Z,99.99
2023-08-29T00:52:19.266Z,99.99
2023-08-29T00:53:19.389Z,99.99
2023-08-29T00:54:19.259Z,99.99
2023-08-29T00:55:19.337Z,99.99
2023-08-29T00:56:19.251Z,99.99
2023-08-29T00:57:19.193Z,99.99
2023-08-29T00:58:19.183Z,99.99
2023-08-29T00:59:19.159Z,99.99
2023-08-29T01:00:19.198Z,99.99
2023-08-29T01:01:19.213Z,99.99
2023-08-29T01:02:19.206Z,99.99
2023-08-29T01:03:19.194Z,99.99
2023-08-29T01:04:19.116Z,99.99
2023-08-29T01:05:19.133Z,99.99
2023-08-29T01:06:19.101Z,99.99
2023-08-29T01:07:19.081Z,99.99
2023-08-29T01:08:19.079Z,99.99
2023-08-29T01:09:19.069Z,99.99
2023-08-29T01:10:19.057Z,99.99
2023-08-29T01:11:19.201Z,99.99
2023-08-29T01:12:19.045Z,99.99
2023-08-29T01:13:19.007Z,99.99
2023-08-29T01:14:19.015Z,99.99
2023-08-29T01:15:19.069Z,99.99
2023-08-29T01:16:19.050Z,99.99
2023-08-29T01:17:18.966Z,99.99
2023-08-29T01:18:18.993Z,99.99
2023-08-29T01:19:18.981Z,99.99
2023-08-29T01:20:18.949Z,99.99
2023-08-29T01:21:19.108Z,99.99
2023-08-29T01:22:18.940Z,99.99
2023-08-29T01:23:18.900Z,99.99
2023-08-29T01:24:18.911Z,99.99
2023-08-29T01:25:18.925Z,99.99
2023-08-29T01:26:18.902Z,99.99
2023-08-29T01:27:18.853Z,99.99
2023-08-29T01:28:18.887Z,99.99
2023-08-29T01:29:18.843Z,99.99
2023-08-29T01:30:18.844Z,99.99
2023-08-29T01:31:18.875Z,99.99
2023-08-29T01:32:18.892Z,99.99
2023-08-29T01:33:18.855Z,99.99
2023-08-29T01:34:18.813Z,99.99
2023-08-29T01:35:18.788Z,99.99
2023-08-29T01:36:18.769Z,99.99
2023-08-29T01:37:18.752Z,99.99
2023-08-29T01:38:18.913Z,99.99
2023-08-29T01:39:18.750Z,99.99
2023-08-29T01:40:18.762Z,99.99
2023-08-29T01:41:18.732Z,99.99
2023-08-29T01:42:18.702Z,99.99
2023-08-29T01:43:18.718Z,99.99
2023-08-29T01:44:18.717Z,99.99
2023-08-29T01:45:18.711Z,99.99
2023-08-29T01:46:18.715Z,99.99
2023-08-29T01:47:18.741Z,99.99
2023-08-29T01:48:18.648Z,99.99
2023-08-29T01:49:18.630Z,99.99
2023-08-29T01:50:18.636Z,99.99
2023-08-29T01:51:18.610Z,99.99
2023-08-29T01:52:18.625Z,99.99
2023-08-29T01:53:18.602Z,99.99
2023-08-29T01:54:18.587Z,99.99
2023-08-29T01:55:18.655Z,99.99
2023-08-29T01:56:18.629Z,99.99
2023-08-29T01:57:18.549Z,99.99
2023-08-29T01:58:18.564Z,99.99
2023-08-29T01:59:18.519Z,99.99
2023-08-29T02:00:18.545Z,99.99
2023-08-29T02:01:23.390Z,99.99
2023-08-29T02:02:18.491Z,99.99
2023-08-29T02:03:18.490Z,99.99
2023-08-29T02:04:18.519Z,99.99
2023-08-29T02:05:18.492Z,99.99
2023-08-29T02:06:18.563Z,99.99
2023-08-29T02:07:18.443Z,99.99
2023-08-29T02:08:18.427Z,99.99
2023-08-29T02:09:18.394Z,99.99
2023-08-29T02:10:18.443Z,99.99
2023-08-29T02:11:18.395Z,99.99
2023-08-29T02:12:18.398Z,99.99
2023-08-29T02:13:18.360Z,99.99
2023-08-29T02:14:18.369Z,99.99
2023-08-29T02:15:18.366Z,99.99
2023-08-29T02:16:18.363Z,99.99
2023-08-29T02:17:18.317Z,99.99
2023-08-29T02:18:18.341Z,99.99
2023-08-29T02:19:18.310Z,99.99
2023-08-29T02:20:18.443Z,99.99
2023-08-29T02:21:18.304Z,99.99
2023-08-29T02:22:18.336Z,99.99
2023-08-29T02:23:18.347Z,99.99
2023-08-29T02:24:18.245Z,99.99
2023-08-29T02:25:18.255Z,99.99
2023-08-29T02:26:18.248Z,99.99
2023-08-29T02:27:18.266Z,99.99
2023-08-29T02:28:18.213Z,99.99
2023-08-29T02:29:18.244Z,99.99
2023-08-29T02:30:18.199Z,99.99
2023-08-29T02:31:18.213Z,99.99
2023-08-29T02:32:18.190Z,99.99
2023-08-29T02:33:18.202Z,99.99
2023-08-29T02:34:18.162Z,99.99
2023-08-29T02:35:18.123Z,99.99
2023-08-29T02:36:18.196Z,99.99
2023-08-29T02:37:18.101Z,99.99
2023-08-29T02:38:18.246Z,99.99
2023-08-29T02:39:18.133Z,99.99
2023-08-29T02:40:18.089Z,99.99
2023-08-29T02:41:18.090Z,99.99
2023-08-29T02:42:18.115Z,99.99
2023-08-29T02:43:18.061Z,99.99
2023-08-29T02:44:18.088Z,99.99
2023-08-29T02:45:18.076Z,99.99
2023-08-29T02:46:18.155Z,99.99
2023-08-29T02:47:18.001Z,99.99
2023-08-29T02:48:18.084Z,99.99
2023-08-29T02:49:17.978Z,99.99
2023-08-29T02:50:17.978Z,99.99
2023-08-29T02:51:17.960Z,99.99
2023-08-29T02:52:18.002Z,99.99
2023-08-29T02:53:17.965Z,99.99
2023-08-29T02:54:17.947Z,99.99
2023-08-29T02:55:17.910Z,99.99
2023-08-29T02:56:17.946Z,99.99
2023-08-29T02:57:17.907Z,99.99
2023-08-29T02:58:17.974Z,99.99
2023-08-29T02:59:17.882Z,99.99
2023-08-29T03:00:17.906Z,99.99
2023-08-29T03:01:17.889Z,99.99
2023-08-29T03:02:17.878Z,99.99
2023-08-29T03:03:18.105Z,99.99
2023-08-29T03:04:17.834Z,99.99
2023-08-29T03:05:17.815Z,99.99
2023-08-29T03:06:17.841Z,99.99
2023-08-29T03:07:17.778Z,99.99
2023-08-29T03:08:17.815Z,99.99
2023-08-29T03:09:17.759Z,99.99
2023-08-29T03:10:17.772Z,99.99
2023-08-29T03:11:17.741Z,99.99
2023-08-29T03:12:17.768Z,99.99
2023-08-29T03:13:17.729Z,99.99
2023-08-29T03:14:17.735Z,99.99
2023-08-29T03:15:17.723Z,99.99
2023-08-29T03:16:20.131Z,99.99
2023-08-29T03:17:17.712Z,99.99
2023-08-29T03:18:17.706Z,99.99
2023-08-29T03:19:17.687Z,99.99
2023-08-29T03:20:17.700Z,99.99
2023-08-29T03:21:17.653Z,99.99
2023-08-29T03:22:17.623Z,99.99
2023-08-29T03:23:17.718Z,99.99
2023-08-29T03:24:17.774Z,99.99
2023-08-29T03:25:17.595Z,99.99
2023-08-29T03:26:17.581Z,99.99
2023-08-29T03:27:17.764Z,99.99
2023-08-29T03:28:17.707Z,99.99
2023-08-29T03:29:17.748Z,99.99
2023-08-29T03:30:17.669Z,99.99
2023-08-29T03:31:17.604Z,99.99
2023-08-29T03:32:17.564Z,99.99
2023-08-29T03:33:17.716Z,99.99
2023-08-29T03:34:17.546Z,99.99
2023-08-29T03:35:17.595Z,99.99
2023-08-29T03:36:17.561Z,99.99
2023-08-29T03:37:17.713Z,99.99
2023-08-29T03:38:17.470Z,99.99
2023-08-29T03:39:18.121Z,99.99
2023-08-29T03:40:25.973Z,99.99
2023-08-29T03:41:20.177Z,99.99
2023-08-29T03:42:17.392Z,99.99
2023-08-29T03:43:18.117Z,99.99
2023-08-29T03:44:17.377Z,99.99
2023-08-29T03:45:17.398Z,99.99
2023-08-29T03:46:17.446Z,99.99
2023-08-29T03:47:17.337Z,99.99
2023-08-29T03:48:28.419Z,99.99
2023-08-29T03:49:18.330Z,99.99
2023-08-29T03:50:19.943Z,99.99
2023-08-29T03:51:17.312Z,99.99
2023-08-29T03:52:17.310Z,99.99
2023-08-29T03:53:17.289Z,99.99
2023-08-29T03:54:17.278Z,99.99
2023-08-29T03:55:17.300Z,99.99
2023-08-29T03:56:17.252Z,99.99
2023-08-29T03:57:17.277Z,99.99
2023-08-29T03:58:17.271Z,99.99
2023-08-29T03:59:17.247Z,99.99
2023-08-29T04:00:17.399Z,99.99
2023-08-29T04:01:17.219Z,99.99
2023-08-29T04:02:17.201Z,99.99
2023-08-29T04:03:17.374Z,99.99
2023-08-29T04:04:17.335Z,99.99
2023-08-29T04:05:17.514Z,99.99
2023-08-29T04:06:17.147Z,99.99
2023-08-29T04:07:17.171Z,99.99
2023-08-29T04:08:17.145Z,99.99
2023-08-29T04:09:17.125Z,99.99
2023-08-29T04:10:17.110Z,99.99
2023-08-29T04:11:17.089Z,99.99
2023-08-29T04:12:17.074Z,99.99
2023-08-29T04:13:17.105Z,99.99
2023-08-29T04:14:17.073Z,99.99
2023-08-29T04:15:17.099Z,99.99
2023-08-29T04:16:17.090Z,99.99
2023-08-29T04:17:17.085Z,99.99
2023-08-29T04:18:17.099Z,99.99
2023-08-29T04:19:17.024Z,99.99
2023-08-29T04:20:16.999Z,99.99
2023-08-29T04:21:16.993Z,99.99
2023-08-29T04:22:16.985Z,99.99
2023-08-29T04:23:16.998Z,99.99
2023-08-29T04:24:16.955Z,99.99
2023-08-29T04:25:16.968Z,99.99
2023-08-29T04:26:16.942Z,99.99
2023-08-29T04:27:16.941Z,99.99
2023-08-29T04:28:16.917Z,99.99
2023-08-29T04:29:16.906Z,99.99
2023-08-29T04:30:16.911Z,99.99
2023-08-29T04:31:16.919Z,99.99
2023-08-29T04:32:16.869Z,99.99
2023-08-29T04:33:16.900Z,99.99
2023-08-29T04:34:16.868Z,99.99
2023-08-29T04:35:16.860Z,99.99
2023-08-29T04:36:16.834Z,99.99
2023-08-29T04:37:16.820Z,99.99
2023-08-29T04:38:16.805Z,99.99
2023-08-29T04:39:16.860Z,99.99
2023-08-29T04:40:16.769Z,99.99
2023-08-29T04:41:16.813Z,99.99
2023-08-29T04:42:16.761Z,99.99
2023-08-29T04:43:16.774Z,99.99
2023-08-29T04:44:16.772Z,99.99
2023-08-29T04:45:16.750Z,99.99
2023-08-29T04:46:16.765Z,99.99
2023-08-29T04:47:16.718Z,99.99
2023-08-29T04:48:16.746Z,99.99
2023-08-29T04:49:16.710Z,99.99
2023-08-29T04:50:16.687Z,99.99
2023-08-29T04:51:16.687Z,99.99
2023-08-29T04:52:16.677Z,99.99
2023-08-29T04:53:16.670Z,99.99
2023-08-29T04:54:16.649Z,99.99
2023-08-29T04:55:16.643Z,99.99
2023-08-29T04:56:16.625Z,99.99
2023-08-29T04:57:16.607Z,99.99
2023-08-29T04:58:16.591Z,99.99
2023-08-29T04:59:16.598Z,99.99
2023-08-29T05:00:16.644Z,99.99
2023-08-29T05:01:16.628Z,99.99
2023-08-29T05:02:16.544Z,99.99
2023-08-29T05:03:16.662Z,99.99
2023-08-29T05:04:16.543Z,99.99
2023-08-29T05:05:16.512Z,99.99
2023-08-29T05:06:16.510Z,99.99
2023-08-29T05:07:16.522Z,99.99
2023-08-29T05:08:16.499Z,99.99
2023-08-29T05:09:18.437Z,99.99
2023-08-29T05:10:17.460Z,99.99
2023-08-29T05:11:16.471Z,99.99
2023-08-29T05:12:16.450Z,99.99
2023-08-29T05:13:16.430Z,99.99
2023-08-29T05:14:16.425Z,99.99
2023-08-29T05:15:16.441Z,99.99
2023-08-29T05:16:16.425Z,99.99
2023-08-29T05:17:16.386Z,99.99
2023-08-29T05:18:16.401Z,99.99
2023-08-29T05:19:16.380Z,99.99
2023-08-29T05:20:16.379Z,99.99
2023-08-29T05:21:16.363Z,99.99
2023-08-29T05:22:16.330Z,99.99
2023-08-29T05:23:16.346Z,99.99
2023-08-29T05:24:16.306Z,99.99
2023-08-29T05:25:16.318Z,99.99
2023-08-29T05:26:16.287Z,99.99
2023-08-29T05:27:16.289Z,99.99
2023-08-29T05:28:16.268Z,99.99
2023-08-29T05:29:16.280Z,99.99
2023-08-29T05:30:16.240Z,99.99
2023-08-29T05:31:16.360Z,99.99
2023-08-29T05:32:16.348Z,99.99
2023-08-29T05:33:16.235Z,99.99
2023-08-29T05:34:16.224Z,99.99
2023-08-29T05:35:16.203Z,99.99
2023-08-29T05:36:16.183Z,99.99
2023-08-29T05:37:16.182Z,99.99
2023-08-29T05:38:16.163Z,99.99
2023-08-29T05:39:16.149Z,99.99
2023-08-29T05:40:16.128Z,99.99
2023-08-29T05:41:16.139Z,99.99
2023-08-29T05:42:16.103Z,99.99
2023-08-29T05:43:16.119Z,99.99
2023-08-29T05:44:16.097Z,99.99
2023-08-29T05:45:16.093Z,99.99
2023-08-29T05:46:16.089Z,99.99
2023-08-29T05:47:16.098Z,99.99
2023-08-29T05:48:16.069Z,99.99
2023-08-29T05:49:16.054Z,99.99
2023-08-29T05:50:16.047Z,99.99
2023-08-29T05:51:16.074Z,99.99
2023-08-29T05:52:16.017Z,99.99
2023-08-29T05:53:16.029Z,99.99
2023-08-29T05:54:15.996Z,99.99
2023-08-29T05:55:16.013Z,99.99
2023-08-29T05:56:15.963Z,99.99
2023-08-29T05:57:15.992Z,99.99
2023-08-29T05:58:15.938Z,99.99
2023-08-29T05:59:15.967Z,99.99
2023-08-29T06:00:15.935Z,99.99
2023-08-29T06:01:15.983Z,99.99
2023-08-29T06:02:15.913Z,99.99
2023-08-29T06:03:16.021Z,99.99
2023-08-29T06:04:15.871Z,99.99
2023-08-29T06:05:15.893Z,99.99
2023-08-29T06:06:15.850Z,99.99
2023-08-29T06:07:15.861Z,99.99
2023-08-29T06:08:19.786Z,99.99
2023-08-29T06:09:15.833Z,99.99
2023-08-29T06:10:15.842Z,99.99
2023-08-29T06:11:15.815Z,99.99
2023-08-29T06:12:15.799Z,99.99
2023-08-29T06:13:15.808Z,99.99
2023-08-29T06:14:15.784Z,99.99
2023-08-29T06:15:15.773Z,99.99
2023-08-29T06:16:15.783Z,99.99
2023-08-29T06:17:15.771Z,99.99
2023-08-29T06:18:15.788Z,99.99
2023-08-29T06:19:15.740Z,99.99
2023-08-29T06:20:15.699Z,99.99
2023-08-29T06:21:15.707Z,99.99
2023-08-29T06:22:15.722Z,99.99
2023-08-29T06:23:15.701Z,99.99
2023-08-29T06:24:15.767Z,99.99
2023-08-29T06:25:15.673Z,99.99
2023-08-29T06:26:15.689Z,99.99
2023-08-29T06:27:15.642Z,99.99
2023-08-29T06:28:15.618Z,99.99
2023-08-29T06:29:15.645Z,99.99
2023-08-29T06:30:15.577Z,99.99
2023-08-29T06:31:15.626Z,99.99
2023-08-29T06:32:15.624Z,99.99
2023-08-29T06:33:15.792Z,99.99
2023-08-29T06:34:15.556Z,99.99
2023-08-29T06:35:15.564Z,99.99
2023-08-29T06:36:15.530Z,99.99
2023-08-29T06:37:15.556Z,99.99
2023-08-29T06:38:15.495Z,99.99
2023-08-29T06:39:15.510Z,99.99
2023-08-29T06:40:15.490Z,99.99
2023-08-29T06:41:15.481Z,99.99
2023-08-29T06:42:15.522Z,99.99
2023-08-29T06:43:15.463Z,99.99
2023-08-29T06:44:15.469Z,99.99
2023-08-29T06:45:15.446Z,99.99
2023-08-29T06:46:15.530Z,99.99
2023-08-29T06:47:15.423Z,99.99
2023-08-29T06:48:15.415Z,99.99
2023-08-29T06:49:15.411Z,99.99
2023-08-29T06:50:15.381Z,99.99
2023-08-29T06:51:15.422Z,99.99
2023-08-29T06:52:15.369Z,99.99
2023-08-29T06:53:15.359Z,99.99
2023-08-29T06:54:15.360Z,99.99
2023-08-29T06:55:15.363Z,99.99
2023-08-29T06:56:15.309Z,99.99
2023-08-29T06:57:15.339Z,99.99
2023-08-29T06:58:15.303Z,99.99
2023-08-29T06:59:15.292Z,99.99
2023-08-29T07:00:15.332Z,99.99
2023-08-29T07:01:15.354Z,99.99
2023-08-29T07:02:15.261Z,99.99
2023-08-29T07:03:15.345Z,99.99
2023-08-29T07:04:15.273Z,99.99
2023-08-29T07:05:15.238Z,99.99
2023-08-29T07:06:15.196Z,99.99
2023-08-29T07:07:15.198Z,99.99
2023-08-29T07:08:15.190Z,99.95
2023-08-29T07:09:15.220Z,99.75
2023-08-29T07:10:15.173Z,99.55
2023-08-29T07:11:15.176Z,99.44
2023-08-29T07:12:15.138Z,99.24
2023-08-29T07:13:15.144Z,99.14
2023-08-29T07:14:15.120Z,99.30
2023-08-29T07:15:15.146Z,99.30
2023-08-29T07:16:15.163Z,99.50
2023-08-29T07:17:15.194Z,99.30
2023-08-29T07:18:15.141Z,99.19
2023-08-29T07:19:15.080Z,98.99
2023-08-29T07:20:15.068Z,99.10
2023-08-29T07:21:15.072Z,99.40
2023-08-29T07:23:15.059Z,99.05
2023-08-29T07:24:15.813Z,99.05
2023-08-29T07:25:15.009Z,99.05
2023-08-29T07:26:14.987Z,98.70
2023-08-29T07:27:14.995Z,98.19
2023-08-29T07:28:15.007Z,97.99
2023-08-29T07:29:14.989Z,97.79
2023-08-29T07:30:14.975Z,97.08
2023-08-29T07:31:15.000Z,96.57
2023-08-29T07:32:14.934Z,96.67
2023-08-29T07:33:14.918Z,96.88
2023-08-29T07:34:14.908Z,96.27
2023-08-29T07:35:15.060Z,96.02
2023-08-29T07:36:14.897Z,95.72
2023-08-29T07:37:14.874Z,95.62
2023-08-29T07:38:14.881Z,95.92
2023-08-29T07:39:14.864Z,95.21
2023-08-29T07:40:14.860Z,95.31
2023-08-29T07:41:14.827Z,95.82
2023-08-29T07:42:14.836Z,95.51
2023-08-29T07:43:14.807Z,95.21
2023-08-29T07:44:14.805Z,94.71
2023-08-29T07:45:14.814Z,95.01
2023-08-29T07:46:14.831Z,95.07
2023-08-29T07:47:16.121Z,95.17
2023-08-29T07:48:14.835Z,94.76
2023-08-29T07:49:14.735Z,94.96
2023-08-29T07:50:14.766Z,94.46
2023-08-29T07:51:14.734Z,94.36
2023-08-29T07:52:14.718Z,94.51
2023-08-29T07:53:14.721Z,94.42
2023-08-29T07:54:14.788Z,94.51
2023-08-29T07:55:14.678Z,93.30
2023-08-29T07:56:14.688Z,93.60
2023-08-29T07:57:14.681Z,93.51
2023-08-29T07:58:14.667Z,94.21
2023-08-29T07:59:14.649Z,94.11
2023-08-29T08:00:14.673Z,93.56
2023-08-29T08:01:14.653Z,92.49
2023-08-29T08:02:14.616Z,92.40
2023-08-29T08:03:14.595Z,92.60
2023-08-29T08:04:14.648Z,92.69
2023-08-29T08:05:14.581Z,93.30
2023-08-29T08:06:14.644Z,93.60
2023-08-29T08:07:14.547Z,93.16
2023-08-29T08:08:14.553Z,93.16
2023-08-29T08:09:14.529Z,92.35
2023-08-29T08:10:14.545Z,92.25
2023-08-29T08:11:14.509Z,91.39
2023-08-29T08:12:14.501Z,91.70
2023-08-29T08:13:14.525Z,91.70
2023-08-29T08:14:14.495Z,91.96
2023-08-29T08:15:14.458Z,91.25
2023-08-29T08:16:14.535Z,90.65
2023-08-29T08:17:14.477Z,90.45
2023-08-29T08:18:14.490Z,90.75
2023-08-29T08:19:14.597Z,90.85
2023-08-29T08:20:14.448Z,90.00
2023-08-29T08:21:14.436Z,90.00
2023-08-29T08:22:14.409Z,89.79
2023-08-29T08:23:14.371Z,89.50
2023-08-29T08:24:14.369Z,88.54
2023-08-29T08:25:14.370Z,88.65
2023-08-29T08:26:14.356Z,88.45
2023-08-29T08:27:14.333Z,88.54
2023-08-29T08:28:14.331Z,87.84
2023-08-29T08:29:14.328Z,88.34
2023-08-29T08:30:14.333Z,88.50
2023-08-29T08:31:14.276Z,87.80
2023-08-29T08:32:14.289Z,87.40
2023-08-29T08:33:14.329Z,87.70
2023-08-29T08:34:14.266Z,87.09
2023-08-29T08:35:14.282Z,87.60
2023-08-29T08:36:14.273Z,87.19
2023-08-29T08:37:14.313Z,85.68
2023-08-29T08:38:22.028Z,84.77
2023-08-29T08:39:14.203Z,84.31
2023-08-29T08:40:14.198Z,85.66
2023-08-29T08:41:14.179Z,86.36
2023-08-29T08:42:14.167Z,86.87
2023-08-29T08:43:14.201Z,85.76
2023-08-29T08:44:14.183Z,86.22
2023-08-29T08:45:14.140Z,88.04
2023-08-29T08:46:14.150Z,86.63
2023-08-29T08:47:14.106Z,85.78
2023-08-29T08:48:14.128Z,85.28
2023-08-29T08:49:14.100Z,85.28
2023-08-29T08:50:14.108Z,84.57
2023-08-29T08:51:14.083Z,84.94
2023-08-29T08:52:14.068Z,84.94
2023-08-29T08:53:14.046Z,84.33
2023-08-29T08:54:14.045Z,83.83
2023-08-29T08:55:14.040Z,84.94
2023-08-29T08:56:14.018Z,84.43
2023-08-29T08:57:13.996Z,85.24
2023-08-29T08:58:14.010Z,85.08
2023-08-29T08:59:13.980Z,85.38
2023-08-29T09:00:13.976Z,85.48
2023-08-29T09:01:13.975Z,85.58
2023-08-29T09:02:13.986Z,86.08
2023-08-29T09:03:13.988Z,86.15
2023-08-29T09:04:13.950Z,85.64
2023-08-29T09:05:13.908Z,85.03
2023-08-29T09:06:14.149Z,84.94
2023-08-29T09:07:13.911Z,85.94
2023-08-29T09:08:13.907Z,86.00
2023-08-29T09:09:13.879Z,85.60
2023-08-29T09:10:13.881Z,84.45
2023-08-29T09:11:13.850Z,83.45
2023-08-29T09:12:13.850Z,83.34
2023-08-29T09:13:13.834Z,83.84
2023-08-29T09:14:14.169Z,83.84
2023-08-29T09:15:13.814Z,83.65
2023-08-29T09:16:13.838Z,83.75
2023-08-29T09:17:13.797Z,83.34
2023-08-29T09:18:13.786Z,84.05
2023-08-29T09:19:13.789Z,83.65
2023-08-29T09:20:13.785Z,82.54
2023-08-29T09:21:13.742Z,81.13
2023-08-29T09:22:13.746Z,81.73
2023-08-29T09:23:13.713Z,81.67
2023-08-29T09:24:13.737Z,82.88
2023-08-29T09:25:13.694Z,82.38
2023-08-29T09:26:13.726Z,82.34
2023-08-29T09:27:13.680Z,81.73
2023-08-29T09:28:13.676Z,81.93
2023-08-29T09:29:13.653Z,82.34
2023-08-29T09:30:13.655Z,83.11
2023-08-29T09:31:13.660Z,82.40
2023-08-29T09:32:13.630Z,82.20
2023-08-29T09:33:13.622Z,81.49
2023-08-29T09:34:13.620Z,81.29
2023-08-29T09:35:13.597Z,80.39
2023-08-29T09:36:13.591Z,81.09
2023-08-29T09:37:13.578Z,81.09
2023-08-29T09:38:13.734Z,81.29
2023-08-29T09:39:13.567Z,80.79
2023-08-29T09:40:30.748Z,80.99
2023-08-29T09:41:14.535Z,81.49
2023-08-29T09:42:13.527Z,82.30
2023-08-29T09:43:13.502Z,81.76
2023-08-29T09:44:13.513Z,79.74
2023-08-29T09:45:13.487Z,81.19
2023-08-29T09:46:13.543Z,81.39
2023-08-29T09:47:13.464Z,81.79
2023-08-29T09:48:13.623Z,81.85
2023-08-29T09:49:13.433Z,81.52
2023-08-29T09:50:13.460Z,80.81
2023-08-29T09:51:13.414Z,79.61
2023-08-29T09:52:13.438Z,79.37
2023-08-29T09:53:13.421Z,80.07
2023-08-29T09:54:13.403Z,79.67
2023-08-29T09:55:13.383Z,79.43
2023-08-29T09:56:13.374Z,79.13
2023-08-29T09:57:13.372Z,77.22
2023-08-29T09:58:13.380Z,76.65
2023-08-29T09:59:13.358Z,77.56
2023-08-29T10:00:13.438Z,78.06
2023-08-29T10:01:13.352Z,78.12
2023-08-29T10:02:13.328Z,76.52
2023-08-29T10:03:13.341Z,77.12
2023-08-29T10:04:13.285Z,77.42
2023-08-29T10:05:13.268Z,77.62
2023-08-29T10:06:13.267Z,76.21
2023-08-29T10:07:13.255Z,77.42
2023-08-29T10:08:13.245Z,75.62
2023-08-29T10:09:13.309Z,76.72
2023-08-29T10:10:13.231Z,76.32
2023-08-29T10:11:13.205Z,76.52
2023-08-29T10:12:13.228Z,75.58
2023-08-29T10:13:13.199Z,74.98
2023-08-29T10:14:13.186Z,74.68
2023-08-29T10:15:13.159Z,73.94
2023-08-29T10:16:13.165Z,73.10
2023-08-29T10:17:25.319Z,73.30
2023-08-29T10:18:14.142Z,73.30
2023-08-29T10:19:13.122Z,74.07
2023-08-29T10:20:13.125Z,71.66
2023-08-29T10:21:13.107Z,71.26
2023-08-29T10:22:13.105Z,71.86
2023-08-29T10:23:13.076Z,70.36
2023-08-29T10:24:13.089Z,69.26
2023-08-29T10:25:13.053Z,69.89
2023-08-29T10:26:13.068Z,70.69
2023-08-29T10:27:13.035Z,71.83
2023-08-29T10:28:13.054Z,73.50
2023-08-29T10:29:13.006Z,72.20
2023-08-29T10:30:13.002Z,70.39
2023-08-29T10:31:12.995Z,69.99
2023-08-29T10:32:12.995Z,71.30
2023-08-29T10:33:13.055Z,71.80
2023-08-29T10:34:12.981Z,70.56
2023-08-29T10:35:12.944Z,70.06
2023-08-29T10:36:12.949Z,70.19
2023-08-29T10:37:12.932Z,70.89
2023-08-29T10:38:14.860Z,72.60
2023-08-29T10:39:12.913Z,73.10
2023-08-29T10:40:13.081Z,74.87
2023-08-29T10:41:12.896Z,73.67
2023-08-29T10:42:12.894Z,71.63
2023-08-29T10:43:12.861Z,71.12
2023-08-29T10:44:12.870Z,69.39
2023-08-29T10:45:12.854Z,68.12
2023-08-29T10:46:12.867Z,69.62
2023-08-29T10:47:12.832Z,71.53
2023-08-29T10:48:12.834Z,70.83
2023-08-29T10:49:12.838Z,70.29
2023-08-29T10:50:12.808Z,70.83
2023-08-29T10:51:12.859Z,70.93
2023-08-29T10:52:12.782Z,70.32
2023-08-29T10:53:12.760Z,69.99
2023-08-29T10:54:12.815Z,71.00
2023-08-29T10:55:12.747Z,69.69
2023-08-29T10:56:12.741Z,69.29
2023-08-29T10:57:12.709Z,68.49
2023-08-29T10:58:12.732Z,68.29
2023-08-29T10:59:12.734Z,67.79
2023-08-29T11:00:12.774Z,67.79
2023-08-29T11:01:12.687Z,68.29
2023-08-29T11:02:12.693Z,68.99
2023-08-29T11:03:12.679Z,66.59
2023-08-29T11:04:12.732Z,66.99
2023-08-29T11:05:12.639Z,66.22
2023-08-29T11:06:12.657Z,66.32
2023-08-29T11:07:12.605Z,66.25
2023-08-29T11:08:12.645Z,67.15
2023-08-29T11:09:12.590Z,67.69
2023-08-29T11:10:12.652Z,67.92
2023-08-29T11:11:12.572Z,68.35
2023-08-29T11:12:12.581Z,69.06
2023-08-29T11:13:12.602Z,68.45
2023-08-29T11:14:12.552Z,68.95
2023-08-29T11:15:12.527Z,68.72
2023-08-29T11:16:12.566Z,68.92
2023-08-29T11:17:12.525Z,68.72
2023-08-29T11:18:12.685Z,69.29
2023-08-29T11:19:12.513Z,68.65
2023-08-29T11:20:12.507Z,69.73
2023-08-29T11:21:12.463Z,68.82
2023-08-29T11:22:12.495Z,67.99
2023-08-29T11:23:12.452Z,67.96
2023-08-29T11:24:17.098Z,64.86
2023-08-29T11:25:13.418Z,64.75
2023-08-29T11:26:12.465Z,63.65
2023-08-29T11:27:12.406Z,63.65
2023-08-29T11:28:12.416Z,63.58
2023-08-29T11:29:12.383Z,63.78
2023-08-29T11:31:12.394Z,64.78
2023-08-29T11:32:12.365Z,64.98
2023-08-29T11:33:12.334Z,64.69
2023-08-29T11:34:12.339Z,63.95
2023-08-29T11:35:12.343Z,64.65
2023-08-29T11:36:12.319Z,63.28
2023-08-29T11:37:12.308Z,63.11
2023-08-29T11:38:12.293Z,64.22
2023-08-29T11:39:12.280Z,63.71
2023-08-29T11:40:12.982Z,64.62
2023-08-29T11:41:29.401Z,63.81
2023-08-29T11:42:20.761Z,64.01
2023-08-29T11:43:48.310Z,63.71
2023-08-29T11:45:00.678Z,63.78
2023-08-29T11:45:45.254Z,64.28
2023-08-29T11:46:13.228Z,63.31
2023-08-29T11:47:12.201Z,64.62
2023-08-29T11:48:12.264Z,64.31
2023-08-29T11:49:12.162Z,64.09
2023-08-29T11:50:12.156Z,64.06
2023-08-29T11:51:12.149Z,63.56
2023-08-29T11:52:12.132Z,63.42
2023-08-29T11:53:12.135Z,63.53
2023-08-29T11:54:12.112Z,64.79
2023-08-29T11:55:12.133Z,62.22
2023-08-29T11:56:12.090Z,63.42
2023-08-29T11:57:12.125Z,63.65
2023-08-29T11:58:12.067Z,64.39
2023-08-29T11:59:12.093Z,67.29
2023-08-29T12:00:12.208Z,64.39
2023-08-29T12:01:12.086Z,64.36
2023-08-29T12:02:12.029Z,63.89
2023-08-29T12:03:12.023Z,64.36
2023-08-29T12:04:12.066Z,65.45
2023-08-29T12:05:12.000Z,64.52
2023-08-29T12:06:11.976Z,62.92
2023-08-29T12:07:11.981Z,61.88
2023-08-29T12:08:11.979Z,63.81
2023-08-29T12:09:11.955Z,64.51
2023-08-29T12:10:11.933Z,63.28
2023-08-29T12:11:11.950Z,62.38
2023-08-29T12:12:11.969Z,62.65
2023-08-29T12:13:11.913Z,62.62
2023-08-29T12:14:11.901Z,62.99
2023-08-29T12:15:12.163Z,60.86
2023-08-29T12:16:11.928Z,60.86
2023-08-29T12:17:11.871Z,60.36
2023-08-29T12:18:11.858Z,60.66
2023-08-29T12:19:11.863Z,60.57
2023-08-29T12:20:11.835Z,61.82
2023-08-29T12:21:11.835Z,62.85
2023-08-29T12:22:11.804Z,64.15
2023-08-29T12:23:11.832Z,63.28
2023-08-29T12:24:11.844Z,63.31
2023-08-29T12:25:11.795Z,63.81
2023-08-29T12:26:11.784Z,63.89
2023-08-29T12:27:11.801Z,63.78
2023-08-29T12:28:11.746Z,61.75
2023-08-29T12:29:11.751Z,60.85
2023-08-29T12:30:11.747Z,61.25
2023-08-29T12:31:11.822Z,62.55
2023-08-29T12:32:11.716Z,61.32
2023-08-29T12:33:11.699Z,59.72
2023-08-29T12:34:11.681Z,59.39
2023-08-29T12:35:11.699Z,60.06
2023-08-29T12:36:11.681Z,59.06
2023-08-29T12:37:11.704Z,58.04
2023-08-29T12:38:11.652Z,58.73
2023-08-29T12:39:11.684Z,59.44
2023-08-29T12:40:11.638Z,59.64
2023-08-29T12:41:11.627Z,57.04
2023-08-29T12:42:11.606Z,56.01
2023-08-29T12:43:11.672Z,55.19
2023-08-29T12:44:11.582Z,56.16
2023-08-29T12:45:11.581Z,55.46
2023-08-29T12:46:11.608Z,55.26
2023-08-29T12:47:11.570Z,53.77
2023-08-29T12:48:11.592Z,55.56
2023-08-29T12:49:11.554Z,55.09
2023-08-29T12:50:13.448Z,55.49
2023-08-29T12:51:11.520Z,56.98
2023-08-29T12:52:11.510Z,55.88
2023-08-29T12:53:11.505Z,55.51
2023-08-29T12:54:11.501Z,57.44